Time,TemperatureF,DewpointF,PressureIn,WindDirection,WindDirectionDegrees,WindSpeedMPH,WindSpeedGustMPH,Humidity,HourlyPrecipIn,Conditions,Clouds,dailyrainin,SoftwareType,DateUTC
2013-10-19 00:05:00,64.5,63.0,29.96,ENE,75,0.0,0.0,95,0.00,,,0.00,Wunderground v.1.15,2013-10-19 05:05:00,
2013-10-19 00:10:00,64.5,62.7,29.96,ENE,75,1.0,1.0,94,0.00,,,0.00,Wunderground v.1.15,2013-10-19 05:10:00,
2013-10-19 00:20:00,64.5,62.7,29.97,NE,47,4.0,4.0,94,0.00,,,0.00,Wunderground v.1.15,2013-10-19 05:20:00,
2013-10-19 00:25:00,64.5,62.7,29.97,NE,44,5.0,5.0,94,0.00,,,0.00,Wunderground v.1.15,2013-10-19 05:25:00,
2013-10-19 00:35:00,63.7,61.9,29.97,North,4,5.0,5.0,94,0.00,,,0.01,Wunderground v.1.15,2013-10-19 05:35:00,
2013-10-19 00:45:00,63.4,62.2,29.97,North,3,3.0,5.0,96,0.00,,,0.01,Wunderground v.1.15,2013-10-19 05:45:00,
2013-10-19 00:50:00,61.6,59.3,29.99,North,357,4.0,5.0,92,0.00,,,0.01,Wunderground v.1.15,2013-10-19 05:50:00,
2013-10-19 01:00:00,58.9,56.6,29.99,NNW,339,4.0,4.0,92,0.00,,,0.01,Wunderground v.1.15,2013-10-19 06:00:00,
2013-10-19 01:05:00,57.3,55.0,30.01,NNW,347,4.0,4.0,92,0.00,,,0.01,Wunderground v.1.15,2013-10-19 06:05:00,
2013-10-19 01:15:00,55.9,53.9,30.01,North,349,4.0,4.0,93,0.00,,,0.01,Wunderground v.1.15,2013-10-19 06:15:00,
2013-10-19 01:20:00,55.6,53.6,30.02,NNW,339,3.0,9.0,93,0.00,,,0.01,Wunderground v.1.15,2013-10-19 06:20:00,
2013-10-19 01:30:00,55.3,53.9,30.02,NW,323,4.0,4.0,95,0.00,,,0.01,Wunderground v.1.15,2013-10-19 06:30:00,
2013-10-19 01:35:00,55.1,54.0,30.03,NNW,342,3.0,5.0,96,0.00,,,0.01,Wunderground v.1.15,2013-10-19 06:35:00,
2013-10-19 01:45:00,54.7,53.6,30.03,NNW,344,3.0,6.0,96,0.00,,,0.01,Wunderground v.1.15,2013-10-19 06:45:00,
2013-10-19 01:55:00,54.1,53.0,30.03,NNW,332,3.0,7.0,96,0.00,,,0.01,Wunderground v.1.15,2013-10-19 06:55:00,
2013-10-19 02:00:00,53.9,52.8,30.03,NNW,339,4.0,4.0,96,0.00,,,0.01,Wunderground v.1.15,2013-10-19 07:00:00,
2013-10-19 02:10:00,53.5,52.4,30.03,NNW,347,4.0,11.0,96,0.00,,,0.01,Wunderground v.1.15,2013-10-19 07:10:00,
2013-10-19 02:15:00,53.3,52.5,30.03,North,352,4.0,11.0,97,0.00,,,0.01,Wunderground v.1.15,2013-10-19 07:15:00,
2013-10-19 02:25:00,53.3,52.5,30.04,NNW,343,2.0,3.0,97,0.00,,,0.01,Wunderground v.1.15,2013-10-19 07:25:00,
2013-10-19 02:30:00,53.2,52.4,30.04,NNW,343,1.0,12.0,97,0.00,,,0.01,Wunderground v.1.15,2013-10-19 07:30:00,
2013-10-19 02:40:00,53.2,52.7,30.05,North,353,2.0,2.0,98,0.00,,,0.01,Wunderground v.1.15,2013-10-19 07:40:00,
2013-10-19 02:45:00,53.2,52.7,30.05,North,353,2.0,2.0,98,0.00,,,0.01,Wunderground v.1.15,2013-10-19 07:45:00,
2013-10-19 02:55:00,53.2,52.9,30.05,NNW,346,3.0,11.0,99,0.00,,,0.01,Wunderground v.1.15,2013-10-19 07:55:00,
2013-10-19 03:00:00,53.1,52.8,30.05,NW,325,5.0,5.0,99,0.00,,,0.01,Wunderground v.1.15,2013-10-19 08:00:00,
2013-10-19 03:10:00,52.8,52.0,30.05,NNW,337,6.0,6.0,97,0.00,,,0.01,Wunderground v.1.15,2013-10-19 08:10:00,
2013-10-19 03:15:00,52.6,51.8,30.05,North,353,5.0,9.0,97,0.00,,,0.01,Wunderground v.1.15,2013-10-19 08:15:00,
2013-10-19 03:25:00,52.6,51.5,30.06,North,357,4.0,7.0,96,0.00,,,0.01,Wunderground v.1.15,2013-10-19 08:25:00,
2013-10-19 03:30:00,52.5,51.4,30.06,North,0,4.0,4.0,96,0.00,,,0.01,Wunderground v.1.15,2013-10-19 08:30:00,
2013-10-19 03:40:00,52.3,50.6,30.06,NNW,336,5.0,7.0,94,0.00,,,0.01,Wunderground v.1.15,2013-10-19 08:40:00,
2013-10-19 03:45:00,52.2,50.2,30.06,NNW,346,6.0,7.0,93,0.00,,,0.01,Wunderground v.1.15,2013-10-19 08:45:00,
2013-10-19 03:55:00,52.0,50.0,30.07,North,354,1.0,4.0,93,0.00,,,0.01,Wunderground v.1.15,2013-10-19 08:55:00,
2013-10-19 04:05:00,52.0,50.0,30.07,North,349,2.0,6.0,93,0.00,,,0.01,Wunderground v.1.15,2013-10-19 09:05:00,
2013-10-19 04:15:00,51.7,49.5,30.07,NNW,346,5.0,12.0,92,0.00,,,0.01,Wunderground v.1.15,2013-10-19 09:15:00,
2013-10-19 04:25:00,51.3,48.5,30.07,NNW,346,7.0,17.0,90,0.00,,,0.01,Wunderground v.1.15,2013-10-19 09:25:00,
2013-10-19 04:30:00,51.0,48.2,30.07,North,0,7.0,14.0,90,0.00,,,0.01,Wunderground v.1.15,2013-10-19 09:30:00,
2013-10-19 04:40:00,50.7,48.2,30.08,NNW,347,6.0,6.0,91,0.00,,,0.01,Wunderground v.1.15,2013-10-19 09:40:00,
2013-10-19 04:45:00,50.5,48.0,30.08,North,0,6.0,6.0,91,0.00,,,0.01,Wunderground v.1.15,2013-10-19 09:45:00,
2013-10-19 04:55:00,50.4,47.9,30.08,North,359,3.0,5.0,91,0.00,,,0.01,Wunderground v.1.15,2013-10-19 09:55:00,
2013-10-19 05:00:00,50.5,48.3,30.08,North,359,2.0,2.0,92,0.00,,,0.01,Wunderground v.1.15,2013-10-19 10:00:00,
2013-10-19 05:10:00,50.5,48.0,30.09,NNW,336,3.0,10.0,91,0.00,,,0.01,Wunderground v.1.15,2013-10-19 10:10:00,
2013-10-19 05:15:00,50.2,47.7,30.09,NW,326,8.0,12.0,91,0.00,,,0.01,Wunderground v.1.15,2013-10-19 10:15:00,
2013-10-19 05:25:00,49.8,47.3,30.09,North,352,7.0,11.0,91,0.00,,,0.01,Wunderground v.1.15,2013-10-19 10:25:00,
2013-10-19 05:30:00,49.8,47.3,30.09,North,352,6.0,7.0,91,0.00,,,0.01,Wunderground v.1.15,2013-10-19 10:30:00,
2013-10-19 05:40:00,49.5,46.7,30.09,NNW,329,8.0,17.0,90,0.00,,,0.01,Wunderground v.1.15,2013-10-19 10:40:00,
2013-10-19 05:45:00,49.5,46.7,30.09,NNW,342,7.0,17.0,90,0.00,,,0.01,Wunderground v.1.15,2013-10-19 10:45:00,
2013-10-19 05:55:00,49.5,46.7,30.09,NNW,343,5.0,11.0,90,0.00,,,0.01,Wunderground v.1.15,2013-10-19 10:55:00,
2013-10-19 06:05:00,49.4,46.3,30.10,North,356,7.0,8.0,89,0.00,,,0.01,Wunderground v.1.15,2013-10-19 11:05:00,
2013-10-19 06:10:00,49.4,46.6,30.10,North,359,5.0,10.0,90,0.00,,,0.01,Wunderground v.1.15,2013-10-19 11:10:00,
2013-10-19 06:20:00,49.2,46.4,30.10,NNW,329,6.0,6.0,90,0.00,,,0.01,Wunderground v.1.15,2013-10-19 11:20:00,
2013-10-19 06:25:00,49.2,46.4,30.10,NW,309,6.0,6.0,90,0.00,,,0.01,Wunderground v.1.15,2013-10-19 11:25:00,
2013-10-19 06:35:00,48.9,45.8,30.12,NNW,339,4.0,5.0,89,0.00,,,0.01,Wunderground v.1.15,2013-10-19 11:35:00,
2013-10-19 06:40:00,48.8,45.7,30.12,NW,309,4.0,4.0,89,0.00,,,0.01,Wunderground v.1.15,2013-10-19 11:40:00,
2013-10-19 06:50:00,48.2,44.5,30.12,NNW,335,5.0,10.0,87,0.00,,,0.01,Wunderground v.1.15,2013-10-19 11:50:00,
2013-10-19 06:55:00,48.0,44.6,30.12,North,357,4.0,10.0,88,0.00,,,0.01,Wunderground v.1.15,2013-10-19 11:55:00,
2013-10-19 07:05:00,47.3,43.9,30.13,NW,326,7.0,17.0,88,0.00,,,0.02,Wunderground v.1.15,2013-10-19 12:05:00,
2013-10-19 07:15:00,46.5,42.8,30.13,NNW,344,7.0,7.0,87,0.00,,,0.02,Wunderground v.1.15,2013-10-19 12:15:00,
2013-10-19 07:20:00,46.2,42.8,30.13,NNW,342,5.0,11.0,88,0.00,,,0.02,Wunderground v.1.15,2013-10-19 12:20:00,
2013-10-19 07:25:00,46.1,42.7,30.13,NNW,344,5.0,11.0,88,0.00,,,0.02,Wunderground v.1.15,2013-10-19 12:25:00,
2013-10-19 07:35:00,45.8,42.4,30.14,NNW,330,4.0,5.0,88,0.00,,,0.02,Wunderground v.1.15,2013-10-19 12:35:00,
2013-10-19 07:40:00,45.7,42.3,30.14,NW,309,4.0,4.0,88,0.00,,,0.02,Wunderground v.1.15,2013-10-19 12:40:00,
2013-10-19 07:50:00,45.5,42.4,30.14,NW,325,1.0,1.0,89,0.00,,,0.02,Wunderground v.1.15,2013-10-19 12:50:00,
2013-10-19 08:00:00,45.5,42.7,30.14,NW,322,3.0,3.0,90,0.00,,,0.02,Wunderground v.1.15,2013-10-19 13:00:00,
2013-10-19 08:05:00,45.5,43.0,30.14,NNW,342,4.0,7.0,91,0.00,,,0.02,Wunderground v.1.15,2013-10-19 13:05:00,
2013-10-19 08:15:00,45.7,42.9,30.14,WNW,298,5.0,5.0,90,0.00,,,0.02,Wunderground v.1.15,2013-10-19 13:15:00,
2013-10-19 08:20:00,45.8,43.0,30.14,NW,320,4.0,5.0,90,0.00,,,0.02,Wunderground v.1.15,2013-10-19 13:20:00,
2013-10-19 08:25:00,46.0,43.2,30.14,NW,312,5.0,14.0,90,0.00,,,0.02,Wunderground v.1.15,2013-10-19 13:25:00,
2013-10-19 08:35:00,46.2,43.1,30.15,NNW,336,7.0,8.0,89,0.00,,,0.02,Wunderground v.1.15,2013-10-19 13:35:00,
2013-10-19 08:40:00,46.4,43.3,30.15,North,350,6.0,12.0,89,0.00,,,0.02,Wunderground v.1.15,2013-10-19 13:40:00,
2013-10-19 08:50:00,46.5,42.5,30.15,North,357,8.0,8.0,86,0.00,,,0.02,Wunderground v.1.15,2013-10-19 13:50:00,
2013-10-19 08:55:00,46.7,42.7,30.15,NW,325,8.0,8.0,86,0.00,,,0.02,Wunderground v.1.15,2013-10-19 13:55:00,
2013-10-19 09:00:00,47.0,42.7,30.15,North,359,8.0,11.0,85,0.00,,,0.02,Wunderground v.1.15,2013-10-19 14:00:00,
2013-10-19 09:10:00,47.4,42.5,30.16,WNW,294,9.0,9.0,83,0.00,,,0.02,Wunderground v.1.15,2013-10-19 14:10:00,
2013-10-19 09:15:00,47.7,42.5,30.16,North,350,7.0,12.0,82,0.00,,,0.02,Wunderground v.1.15,2013-10-19 14:15:00,
2013-10-19 09:25:00,48.0,42.1,30.17,North,349,10.0,14.0,80,0.00,,,0.02,Wunderground v.1.15,2013-10-19 14:25:00,
2013-10-19 09:30:00,48.2,42.3,30.17,NNW,328,8.0,8.0,80,0.00,,,0.02,Wunderground v.1.15,2013-10-19 14:30:00,
2013-10-19 09:40:00,48.5,42.0,30.17,NW,322,6.0,8.0,78,0.00,,,0.02,Wunderground v.1.15,2013-10-19 14:40:00,
2013-10-19 09:45:00,48.6,42.0,30.17,North,0,6.0,8.0,78,0.00,,,0.02,Wunderground v.1.15,2013-10-19 14:45:00,
2013-10-19 09:55:00,49.2,42.0,30.18,North,350,7.0,17.0,76,0.00,,,0.02,Wunderground v.1.15,2013-10-19 14:55:00,
2013-10-19 10:00:00,49.2,42.0,30.18,NW,326,9.0,10.0,76,0.00,,,0.02,Wunderground v.1.15,2013-10-19 15:00:00,
2013-10-19 10:10:00,49.8,42.5,30.19,NNW,333,5.0,11.0,76,0.00,,,0.02,Wunderground v.1.15,2013-10-19 15:10:00,
2013-10-19 10:15:00,50.1,41.8,30.19,NNW,335,6.0,11.0,73,0.00,,,0.02,Wunderground v.1.15,2013-10-19 15:15:00,
2013-10-19 10:20:00,50.2,41.2,30.19,North,4,9.0,9.0,71,0.00,,,0.02,Wunderground v.1.15,2013-10-19 15:20:00,
2013-10-19 10:30:00,50.8,42.1,30.19,North,350,6.0,6.0,72,0.00,,,0.02,Wunderground v.1.15,2013-10-19 15:30:00,
2013-10-19 10:35:00,51.3,41.5,30.18,North,356,3.0,6.0,69,0.00,,,0.02,Wunderground v.1.15,2013-10-19 15:35:00,
2013-10-19 10:45:00,51.9,42.4,30.18,NNW,333,3.0,3.0,70,0.00,,,0.02,Wunderground v.1.15,2013-10-19 15:45:00,
2013-10-19 10:50:00,52.3,40.9,30.18,NNW,342,5.0,8.0,65,0.00,,,0.02,Wunderground v.1.15,2013-10-19 15:50:00,
2013-10-19 11:00:00,53.5,41.6,30.18,North,0,6.0,6.0,64,0.00,,,0.02,Wunderground v.1.15,2013-10-19 16:00:00,
2013-10-19 11:05:00,54.1,42.2,30.17,NNW,337,4.0,6.0,64,0.00,,,0.02,Wunderground v.1.15,2013-10-19 16:05:00,
2013-10-19 11:15:00,55.1,42.3,30.17,NNW,337,4.0,14.0,62,0.00,,,0.02,Wunderground v.1.15,2013-10-19 16:15:00,
2013-10-19 11:20:00,55.4,40.9,30.18,NNW,336,4.0,4.0,58,0.00,,,0.02,Wunderground v.1.15,2013-10-19 16:20:00,
2013-10-19 11:30:00,56.0,40.1,30.18,NNW,330,4.0,4.0,55,0.00,,,0.02,Wunderground v.1.15,2013-10-19 16:30:00,
2013-10-19 11:35:00,56.7,40.7,30.17,NNW,336,2.0,4.0,55,0.00,,,0.02,Wunderground v.1.15,2013-10-19 16:35:00,
2013-10-19 11:45:00,57.6,38.6,30.17,North,359,6.0,6.0,49,0.00,,,0.02,Wunderground v.1.15,2013-10-19 16:45:00,
2013-10-19 11:50:00,57.8,39.3,30.17,North,0,5.0,11.0,50,0.00,,,0.02,Wunderground v.1.15,2013-10-19 16:50:00,
2013-10-19 12:00:00,58.1,37.4,30.17,North,359,7.0,13.0,46,0.00,,,0.02,Wunderground v.1.15,2013-10-19 17:00:00,
2013-10-19 12:05:00,58.3,38.1,30.16,North,10,6.0,13.0,47,0.00,,,0.02,Wunderground v.1.15,2013-10-19 17:05:00,
2013-10-19 12:15:00,59.0,39.3,30.16,North,354,8.0,9.0,48,0.00,,,0.02,Wunderground v.1.15,2013-10-19 17:15:00,
2013-10-19 12:20:00,59.3,39.6,30.17,NNE,21,4.0,12.0,48,0.00,,,0.02,Wunderground v.1.15,2013-10-19 17:20:00,
2013-10-19 12:30:00,59.3,37.4,30.17,NNE,18,5.0,5.0,44,0.00,,,0.02,Wunderground v.1.15,2013-10-19 17:30:00,
2013-10-19 12:35:00,59.5,40.8,30.16,NNE,23,4.0,13.0,50,0.00,,,0.02,Wunderground v.1.15,2013-10-19 17:35:00,
2013-10-19 12:45:00,60.2,41.0,30.16,North,357,7.0,7.0,49,0.00,,,0.02,Wunderground v.1.15,2013-10-19 17:45:00,
2013-10-19 12:50:00,60.2,38.8,30.15,North,0,6.0,18.0,45,0.00,,,0.02,Wunderground v.1.15,2013-10-19 17:50:00,
2013-10-19 12:55:00,60.2,38.8,30.15,North,8,6.0,18.0,45,0.00,,,0.02,Wunderground v.1.15,2013-10-19 17:55:00,
2013-10-19 13:05:00,61.3,38.0,30.14,North,8,3.0,8.0,42,0.00,,,0.02,Wunderground v.1.15,2013-10-19 18:05:00,
2013-10-19 13:15:00,61.6,39.5,30.14,NNE,23,4.0,6.0,44,0.00,,,0.02,Wunderground v.1.15,2013-10-19 18:15:00,
2013-10-19 13:20:00,61.8,38.4,30.14,North,0,4.0,4.0,42,0.00,,,0.02,Wunderground v.1.15,2013-10-19 18:20:00,
2013-10-19 13:30:00,61.8,39.6,30.14,North,7,5.0,7.0,44,0.00,,,0.02,Wunderground v.1.15,2013-10-19 18:30:00,
2013-10-19 13:35:00,62.3,40.7,30.13,North,352,4.0,9.0,45,0.00,,,0.02,Wunderground v.1.15,2013-10-19 18:35:00,
2013-10-19 13:45:00,62.4,40.8,30.13,North,357,4.0,8.0,45,0.00,,,0.02,Wunderground v.1.15,2013-10-19 18:45:00,
2013-10-19 13:50:00,63.1,42.0,30.13,NNE,18,2.0,2.0,46,0.00,,,0.02,Wunderground v.1.15,2013-10-19 18:50:00,
2013-10-19 14:00:00,63.4,40.5,30.13,NNW,330,2.0,2.0,43,0.00,,,0.02,Wunderground v.1.15,2013-10-19 19:00:00,
2013-10-19 14:05:00,63.7,38.9,30.12,NNE,32,2.0,2.0,40,0.00,,,0.02,Wunderground v.1.15,2013-10-19 19:05:00,
2013-10-19 14:20:00,64.2,38.7,30.12,North,0,1.0,1.0,39,0.00,,,0.02,Wunderground v.1.15,2013-10-19 19:20:00,
2013-10-19 14:25:00,63.9,41.0,30.12,North,0,1.0,1.0,43,0.00,,,0.02,Wunderground v.1.15,2013-10-19 19:25:00,
2013-10-19 14:35:00,64.5,40.9,30.11,NE,35,1.0,1.0,42,0.00,,,0.02,Wunderground v.1.15,2013-10-19 19:35:00,
2013-10-19 14:40:00,64.7,39.2,30.11,North,357,1.0,2.0,39,0.00,,,0.02,Wunderground v.1.15,2013-10-19 19:40:00,
2013-10-19 14:50:00,64.2,39.4,30.10,NNE,20,1.0,1.0,40,0.00,,,0.02,Wunderground v.1.15,2013-10-19 19:50:00,
2013-10-19 14:55:00,64.2,38.7,30.10,North,0,1.0,1.0,39,0.00,,,0.02,Wunderground v.1.15,2013-10-19 19:55:00,
2013-10-19 15:05:00,64.3,39.4,30.10,North,10,1.0,1.0,40,0.00,,,0.02,Wunderground v.1.15,2013-10-19 20:05:00,
2013-10-19 15:10:00,64.7,40.4,30.10,North,3,1.0,1.0,41,0.00,,,0.02,Wunderground v.1.15,2013-10-19 20:10:00,
2013-10-19 15:20:00,64.8,39.9,30.09,NNW,340,1.0,1.0,40,0.00,,,0.02,Wunderground v.1.15,2013-10-19 20:20:00,
2013-10-19 15:30:00,65.0,40.7,30.09,NNE,14,1.0,1.0,41,0.00,,,0.02,Wunderground v.1.15,2013-10-19 20:30:00,
2013-10-19 15:35:00,65.0,39.4,30.09,NNE,14,0.0,1.0,39,0.00,,,0.02,Wunderground v.1.15,2013-10-19 20:35:00,
2013-10-19 15:40:00,65.0,39.4,30.09,NNE,24,0.0,0.0,39,0.00,,,0.02,Wunderground v.1.15,2013-10-19 20:40:00,
2013-10-19 15:50:00,65.0,43.1,30.09,North,0,0.0,0.0,45,0.00,,,0.02,Wunderground v.1.15,2013-10-19 20:50:00,
2013-10-19 16:00:00,65.2,41.5,30.09,NE,38,0.0,0.0,42,0.00,,,0.02,Wunderground v.1.15,2013-10-19 21:00:00,
2013-10-19 16:05:00,65.0,39.4,30.09,NNE,32,0.0,0.0,39,0.00,,,0.02,Wunderground v.1.15,2013-10-19 21:05:00,
2013-10-19 16:15:00,64.3,40.1,30.09,NNE,13,0.0,1.0,41,0.00,,,0.02,Wunderground v.1.15,2013-10-19 21:15:00,
2013-10-19 16:20:00,64.2,40.6,30.09,NNE,17,0.0,0.0,42,0.00,,,0.02,Wunderground v.1.15,2013-10-19 21:20:00,
2013-10-19 16:30:00,63.7,39.5,30.09,NNE,17,0.0,0.0,41,0.00,,,0.02,Wunderground v.1.15,2013-10-19 21:30:00,
2013-10-19 16:40:00,63.4,40.5,30.09,NNE,21,0.0,0.0,43,0.00,,,0.02,Wunderground v.1.15,2013-10-19 21:40:00,
2013-10-19 16:45:00,63.1,40.8,30.09,NNE,21,0.0,0.0,44,0.00,,,0.02,Wunderground v.1.15,2013-10-19 21:45:00,
2013-10-19 16:55:00,62.7,39.9,30.08,NNE,20,0.0,0.0,43,0.00,,,0.02,Wunderground v.1.15,2013-10-19 21:55:00,
2013-10-19 17:00:00,62.4,40.2,30.08,NNE,20,0.0,0.0,44,0.00,,,0.02,Wunderground v.1.15,2013-10-19 22:00:00,
2013-10-19 17:10:00,62.1,41.1,30.08,NNE,20,0.0,0.0,46,0.00,,,0.02,Wunderground v.1.15,2013-10-19 22:10:00,
2013-10-19 17:15:00,62.0,40.4,30.08,NNE,20,0.0,1.0,45,0.00,,,0.02,Wunderground v.1.15,2013-10-19 22:15:00,
2013-10-19 17:25:00,61.6,41.2,30.08,NNE,20,0.0,1.0,47,0.00,,,0.02,Wunderground v.1.15,2013-10-19 22:25:00,
2013-10-19 17:30:00,61.5,41.1,30.08,NNE,20,0.0,0.0,47,0.00,,,0.02,Wunderground v.1.15,2013-10-19 22:30:00,
2013-10-19 17:40:00,61.2,41.9,30.08,NNE,20,0.0,0.0,49,0.00,,,0.02,Wunderground v.1.15,2013-10-19 22:40:00,
2013-10-19 17:50:00,60.7,42.5,30.07,NNE,20,0.0,0.0,51,0.00,,,0.02,Wunderground v.1.15,2013-10-19 22:50:00,
2013-10-19 17:55:00,60.5,42.3,30.07,NNE,20,0.0,0.0,51,0.00,,,0.02,Wunderground v.1.15,2013-10-19 22:55:00,
2013-10-19 18:05:00,60.2,41.5,30.07,NNE,20,0.0,0.0,50,0.00,,,0.02,Wunderground v.1.15,2013-10-19 23:05:00,
2013-10-19 18:10:00,60.2,43.5,30.07,NNE,20,0.0,0.0,54,0.00,,,0.02,Wunderground v.1.15,2013-10-19 23:10:00,
2013-10-19 18:20:00,59.5,43.3,30.07,NNE,20,0.0,0.0,55,0.00,,,0.02,Wunderground v.1.15,2013-10-19 23:20:00,
2013-10-19 18:25:00,59.2,44.4,30.07,NNE,20,0.0,0.0,58,0.00,,,0.02,Wunderground v.1.15,2013-10-19 23:25:00,
2013-10-19 18:35:00,58.6,45.6,30.07,NNE,20,0.0,0.0,62,0.00,,,0.02,Wunderground v.1.15,2013-10-19 23:35:00,
2013-10-19 18:40:00,58.0,45.0,30.07,NNE,20,0.0,0.0,62,0.00,,,0.02,Wunderground v.1.15,2013-10-19 23:40:00,
2013-10-19 18:50:00,56.3,44.7,30.07,NNE,20,0.0,0.0,65,0.00,,,0.02,Wunderground v.1.15,2013-10-19 23:50:00,
2013-10-19 18:55:00,55.6,44.8,30.07,NNE,20,0.0,0.0,67,0.00,,,0.02,Wunderground v.1.15,2013-10-19 23:55:00,
2013-10-19 19:05:00,54.2,44.2,30.08,NNE,20,0.0,0.0,69,0.00,,,0.02,Wunderground v.1.15,2013-10-20 00:05:00,
2013-10-19 19:10:00,53.3,44.1,30.08,NNE,20,0.0,0.0,71,0.00,,,0.02,Wunderground v.1.15,2013-10-20 00:10:00,
2013-10-19 19:20:00,52.0,44.0,30.08,NNE,20,0.0,0.0,74,0.00,,,0.02,Wunderground v.1.15,2013-10-20 00:20:00,
2013-10-19 19:30:00,51.1,43.8,30.08,NNE,20,0.0,0.0,76,0.00,,,0.02,Wunderground v.1.15,2013-10-20 00:30:00,
2013-10-19 19:35:00,50.7,43.8,30.08,NNE,20,0.0,0.0,77,0.00,,,0.02,Wunderground v.1.15,2013-10-20 00:35:00,
2013-10-19 19:45:00,49.9,43.3,30.08,NNE,20,0.0,0.0,78,0.00,,,0.02,Wunderground v.1.15,2013-10-20 00:45:00,
2013-10-19 19:50:00,49.6,43.4,30.09,NNE,20,0.0,0.0,79,0.00,,,0.02,Wunderground v.1.15,2013-10-20 00:50:00,
2013-10-19 20:00:00,49.1,43.2,30.09,NNE,20,0.0,0.0,80,0.00,,,0.02,Wunderground v.1.15,2013-10-20 01:00:00,
2013-10-19 20:10:00,48.5,42.9,30.09,NNE,20,0.0,0.0,81,0.00,,,0.02,Wunderground v.1.15,2013-10-20 01:10:00,
2013-10-19 20:15:00,48.2,42.6,30.09,NNE,20,0.0,0.0,81,0.00,,,0.02,Wunderground v.1.15,2013-10-20 01:15:00,
2013-10-19 20:25:00,47.7,42.5,30.10,NNE,20,0.0,0.0,82,0.00,,,0.02,Wunderground v.1.15,2013-10-20 01:25:00,
2013-10-19 20:30:00,47.4,42.5,30.10,NNE,20,0.0,0.0,83,0.00,,,0.02,Wunderground v.1.15,2013-10-20 01:30:00,
2013-10-19 20:40:00,47.0,42.1,30.10,NNE,20,0.0,0.0,83,0.00,,,0.02,Wunderground v.1.15,2013-10-20 01:40:00,
2013-10-19 20:45:00,46.8,41.9,30.10,NNE,20,0.0,0.0,83,0.00,,,0.02,Wunderground v.1.15,2013-10-20 01:45:00,
2013-10-19 20:55:00,46.4,41.8,30.10,NNE,20,0.0,0.0,84,0.00,,,0.02,Wunderground v.1.15,2013-10-20 01:55:00,
2013-10-19 21:00:00,46.2,41.6,30.10,NNE,20,0.0,0.0,84,0.00,,,0.02,Wunderground v.1.15,2013-10-20 02:00:00,
2013-10-19 21:10:00,45.8,41.5,30.11,NNE,20,0.0,0.0,85,0.00,,,0.02,Wunderground v.1.15,2013-10-20 02:10:00,
2013-10-19 21:20:00,45.5,41.6,30.10,NNE,20,0.0,0.0,86,0.00,,,0.02,Wunderground v.1.15,2013-10-20 02:20:00,
2013-10-19 21:25:00,45.4,41.5,30.10,NNE,20,0.0,0.0,86,0.00,,,0.02,Wunderground v.1.15,2013-10-20 02:25:00,
2013-10-19 21:35:00,44.9,41.3,30.10,NNE,20,0.0,0.0,87,0.00,,,0.02,Wunderground v.1.15,2013-10-20 02:35:00,
2013-10-19 21:40:00,44.8,41.2,30.10,NNE,20,0.0,0.0,87,0.00,,,0.02,Wunderground v.1.15,2013-10-20 02:40:00,
2013-10-19 21:50:00,44.6,41.3,30.10,NNE,20,0.0,0.0,88,0.00,,,0.02,Wunderground v.1.15,2013-10-20 02:50:00,
2013-10-19 22:00:00,44.5,41.5,30.10,NNE,20,0.0,0.0,89,0.00,,,0.02,Wunderground v.1.15,2013-10-20 03:00:00,
2013-10-19 22:05:00,44.3,41.3,30.10,NNE,20,0.0,0.0,89,0.00,,,0.02,Wunderground v.1.15,2013-10-20 03:05:00,
2013-10-19 22:15:00,44.2,41.2,30.10,NNE,20,0.0,0.0,89,0.00,,,0.02,Wunderground v.1.15,2013-10-20 03:15:00,
2013-10-19 22:20:00,44.1,41.1,30.10,NNE,20,0.0,0.0,89,0.00,,,0.02,Wunderground v.1.15,2013-10-20 03:20:00,
2013-10-19 22:30:00,43.8,40.8,30.10,NNE,20,0.0,0.0,89,0.00,,,0.02,Wunderground v.1.15,2013-10-20 03:30:00,
2013-10-19 22:35:00,43.8,41.1,30.10,NNE,20,0.0,0.0,90,0.00,,,0.02,Wunderground v.1.15,2013-10-20 03:35:00,
2013-10-19 22:45:00,43.5,40.8,30.10,NNE,20,0.0,0.0,90,0.00,,,0.02,Wunderground v.1.15,2013-10-20 03:45:00,
2013-10-19 22:55:00,43.3,40.6,30.10,NNE,20,0.0,0.0,90,0.00,,,0.02,Wunderground v.1.15,2013-10-20 03:55:00,
2013-10-19 23:00:00,43.2,40.5,30.10,NNE,20,0.0,0.0,90,0.00,,,0.02,Wunderground v.1.15,2013-10-20 04:00:00,
2013-10-19 23:05:00,43.1,40.7,30.11,NNE,20,0.0,0.0,91,0.00,,,0.02,Wunderground v.1.15,2013-10-20 04:05:00,
2013-10-19 23:10:00,43.1,40.7,30.11,NNE,20,0.0,0.0,91,0.00,,,0.02,Wunderground v.1.15,2013-10-20 04:10:00,
2013-10-19 23:15:00,43.1,40.7,30.11,NNE,20,0.0,0.0,91,0.00,,,0.02,Wunderground v.1.15,2013-10-20 04:15:00,
2013-10-19 23:20:00,43.1,40.7,30.10,NNE,20,0.0,0.0,91,0.00,,,0.02,Wunderground v.1.15,2013-10-20 04:20:00,
2013-10-19 23:25:00,42.9,40.7,30.10,NNE,20,0.0,0.0,92,0.00,,,0.02,Wunderground v.1.15,2013-10-20 04:25:00,
2013-10-19 23:30:00,42.9,40.7,30.10,NNE,20,0.0,0.0,92,0.00,,,0.02,Wunderground v.1.15,2013-10-20 04:30:00,
2013-10-19 23:40:00,43.1,40.9,30.09,NNE,20,0.0,0.0,92,0.00,,,0.02,Wunderground v.1.15,2013-10-20 04:40:00,
2013-10-19 23:50:00,42.9,40.7,30.09,NNE,20,0.0,0.0,92,0.00,,,0.02,Wunderground v.1.15,2013-10-20 04:50:00,
2013-10-19 23:55:00,42.9,40.7,30.09,NNE,20,0.0,0.0,92,0.00,,,0.02,Wunderground v.1.15,2013-10-20 04:55:00,